createdAt,value
2023-05-10T00:00:12.489Z,5.30
2023-05-10T00:02:42.785Z,3.42
2023-05-10T00:05:10.363Z,1.10
2023-05-10T00:07:37.594Z,0.65
2023-05-10T00:10:05.123Z,2.35
2023-05-10T00:12:32.410Z,2.15
2023-05-10T00:14:59.659Z,3.08
2023-05-10T00:17:26.981Z,7.78
2023-05-10T00:19:54.245Z,1.48
2023-05-10T00:22:21.875Z,3.30
2023-05-10T00:24:49.094Z,2.42
2023-05-10T00:27:16.430Z,5.60
2023-05-10T00:29:43.700Z,6.93
2023-05-10T00:32:10.953Z,1.83
2023-05-10T00:34:38.484Z,4.57
2023-05-10T00:37:06.775Z,3.13
2023-05-10T00:39:33.971Z,5.43
2023-05-10T00:42:01.364Z,1.92
2023-05-10T00:44:28.865Z,4.03
2023-05-10T00:46:56.119Z,4.47
2023-05-10T00:49:23.437Z,2.95
2023-05-10T00:51:51.252Z,2.67
2023-05-10T00:54:19.010Z,7.13
2023-05-10T00:56:49.850Z,3.22
2023-05-10T00:59:18.233Z,3.42
2023-05-10T01:01:46.576Z,3.35
2023-05-10T01:04:15.505Z,6.60
2023-05-10T01:06:43.578Z,5.20
2023-05-10T01:09:12.755Z,2.95
2023-05-10T01:11:41.333Z,3.38
2023-05-10T01:14:09.609Z,10.00
2023-05-10T01:16:39.938Z,1.90
2023-05-10T01:19:28.974Z,4.07
2023-05-10T01:22:40.888Z,1.63
2023-05-10T01:25:11.327Z,1.95
2023-05-10T01:28:16.270Z,4.93
2023-05-10T01:31:08.448Z,2.50
2023-05-10T01:33:44.826Z,7.20
2023-05-10T01:36:28.096Z,2.97
2023-05-10T01:39:24.437Z,2.22
2023-05-10T01:42:03.315Z,7.03
2023-05-10T01:44:47.576Z,2.67
2023-05-10T01:47:45.689Z,7.47
2023-05-10T01:50:23.929Z,5.35
2023-05-10T01:53:00.167Z,2.85
2023-05-10T01:55:33.873Z,6.55
2023-05-10T01:58:09.761Z,4.10
2023-05-10T02:00:37.993Z,3.78
2023-05-10T02:03:08.965Z,4.82
2023-05-10T02:05:39.964Z,7.22
2023-05-10T02:08:08.548Z,6.97
2023-05-10T02:10:40.415Z,5.53
2023-05-10T02:13:09.481Z,4.70
2023-05-10T02:15:38.241Z,3.38
2023-05-10T02:18:07.270Z,3.83
2023-05-10T02:20:36.047Z,4.97
2023-05-10T02:23:04.481Z,7.13
2023-05-10T02:25:33.862Z,3.83
2023-05-10T02:28:03.296Z,2.47
2023-05-10T02:30:33.537Z,4.28
2023-05-10T02:33:01.872Z,3.20
2023-05-10T02:35:29.869Z,5.38
2023-05-10T02:37:59.731Z,4.45
2023-05-10T02:40:28.954Z,5.78
2023-05-10T02:42:59.836Z,3.50
2023-05-10T02:45:30.240Z,6.60
2023-05-10T02:47:58.075Z,3.88
2023-05-10T02:50:29.512Z,6.47
2023-05-10T02:53:02.803Z,5.93
2023-05-10T02:55:36.552Z,2.53
2023-05-10T02:58:04.802Z,5.60
2023-05-10T03:00:32.706Z,6.60
2023-05-10T03:03:00.170Z,5.45
2023-05-10T03:05:28.756Z,2.95
2023-05-10T03:07:57.860Z,11.60
2023-05-10T03:10:30.478Z,3.15
2023-05-10T03:13:29.758Z,4.72
2023-05-10T03:16:13.252Z,4.47
2023-05-10T03:18:49.069Z,7.25
2023-05-10T03:21:19.833Z,5.32
2023-05-10T03:23:58.747Z,4.70
2023-05-10T03:26:28.441Z,4.35
2023-05-10T03:29:06.679Z,5.47
2023-05-10T03:31:34.300Z,6.50
2023-05-10T03:34:02.314Z,6.43
2023-05-10T03:36:29.758Z,5.95
2023-05-10T03:38:57.045Z,5.28
2023-05-10T03:41:26.220Z,6.78
2023-05-10T03:43:55.076Z,10.15
2023-05-10T03:46:22.922Z,5.15
2023-05-10T03:48:50.656Z,3.83
2023-05-10T03:51:17.929Z,5.00
2023-05-10T03:53:45.177Z,6.07
2023-05-10T03:56:12.417Z,8.38
2023-05-10T03:58:39.708Z,6.97
2023-05-10T04:01:06.965Z,4.55
2023-05-10T04:03:34.339Z,7.28
2023-05-10T04:06:02.914Z,15.65
2023-05-10T04:08:30.707Z,5.43
2023-05-10T04:11:13.935Z,6.85
2023-05-10T04:13:41.190Z,7.82
2023-05-10T04:16:08.590Z,5.63
2023-05-10T04:18:36.293Z,12.05
2023-05-10T04:21:03.767Z,8.88
2023-05-10T04:23:30.966Z,8.05
2023-05-10T04:26:02.343Z,9.13
2023-05-10T04:28:29.600Z,10.45
2023-05-10T04:31:08.191Z,11.05
2023-05-10T04:33:36.559Z,6.82
2023-05-10T04:36:04.665Z,9.68
2023-05-10T04:38:32.029Z,9.80
2023-05-10T04:41:09.546Z,5.82
2023-05-10T04:43:37.483Z,9.30
2023-05-10T04:46:05.509Z,9.65
2023-05-10T04:48:32.871Z,14.95
2023-05-10T04:51:00.136Z,7.88
2023-05-10T04:53:27.447Z,11.95
2023-05-10T04:55:54.661Z,11.00
2023-05-10T04:58:22.037Z,12.32
2023-05-10T05:00:49.317Z,15.70
2023-05-10T05:03:17.388Z,15.48
2023-05-10T05:05:45.960Z,10.90
2023-05-10T05:08:13.891Z,11.45
2023-05-10T05:10:41.481Z,17.45
2023-05-10T05:13:08.690Z,10.00
2023-05-10T05:15:35.927Z,9.63
2023-05-10T05:18:03.222Z,12.60
2023-05-10T05:20:34.058Z,14.43
2023-05-10T05:23:02.129Z,10.48
2023-05-10T05:25:29.573Z,12.95
2023-05-10T05:27:56.880Z,12.93
2023-05-10T05:30:24.140Z,12.68
2023-05-10T05:32:51.353Z,12.90
2023-05-10T05:35:18.814Z,15.13
2023-05-10T05:37:46.222Z,14.90
2023-05-10T05:40:16.532Z,13.02
2023-05-10T05:42:43.853Z,14.98
2023-05-10T05:45:14.344Z,11.93
2023-05-10T05:47:42.187Z,12.73
2023-05-10T05:50:09.947Z,11.63
2023-05-10T05:52:37.284Z,14.57
2023-05-10T05:55:04.851Z,11.88
2023-05-10T05:57:32.318Z,15.73
2023-05-10T05:59:59.773Z,14.40
2023-05-10T06:02:27.096Z,15.73
2023-05-10T06:04:54.330Z,15.18
2023-05-10T06:07:21.565Z,9.50
2023-05-10T06:09:48.785Z,13.15
2023-05-10T06:12:16.017Z,12.60
2023-05-10T06:14:43.197Z,12.25
2023-05-10T06:17:10.498Z,11.10
2023-05-10T06:19:37.937Z,12.50
2023-05-10T06:22:05.226Z,12.52
2023-05-10T06:24:32.527Z,12.48
2023-05-10T06:27:01.204Z,20.40
2023-05-10T06:29:28.455Z,18.35
2023-05-10T06:31:55.834Z,12.05
2023-05-10T06:34:23.197Z,16.42
2023-05-10T06:36:50.433Z,13.68
2023-05-10T06:39:17.718Z,17.42
2023-05-10T06:41:44.940Z,15.13
2023-05-10T06:44:16.404Z,18.63
2023-05-10T06:46:43.942Z,12.70
2023-05-10T06:49:11.298Z,11.38
2023-05-10T06:51:38.538Z,16.02
2023-05-10T06:54:05.756Z,18.10
2023-05-10T06:56:32.886Z,11.60
2023-05-10T06:59:00.153Z,9.45
2023-05-10T07:01:27.558Z,12.38
2023-05-10T07:03:55.083Z,14.13
2023-05-10T07:06:33.005Z,7.25
2023-05-10T07:09:01.697Z,14.82
2023-05-10T07:11:28.980Z,17.10
2023-05-10T07:13:56.252Z,7.80
2023-05-10T07:16:23.649Z,8.02
2023-05-10T07:18:51.744Z,16.00
2023-05-10T07:21:19.004Z,8.13
2023-05-10T07:23:46.364Z,10.07
2023-05-10T07:26:13.649Z,7.18
2023-05-10T07:28:41.035Z,8.27
2023-05-10T07:31:08.277Z,10.05
2023-05-10T07:33:35.712Z,12.90
2023-05-10T07:36:02.883Z,13.10
2023-05-10T07:38:30.150Z,5.20
2023-05-10T07:40:57.326Z,13.77
2023-05-10T07:43:24.521Z,8.55
2023-05-10T07:45:53.934Z,10.02
2023-05-10T07:48:22.736Z,7.22
2023-05-10T07:50:50.060Z,7.97
2023-05-10T07:53:17.808Z,15.63
2023-05-10T07:55:45.007Z,11.30
2023-05-10T07:58:12.322Z,9.00
2023-05-10T08:00:40.589Z,11.50
2023-05-10T08:03:07.951Z,13.30
2023-05-10T08:05:35.872Z,7.47
2023-05-10T08:08:03.197Z,15.27
2023-05-10T08:10:30.644Z,10.27
2023-05-10T08:12:59.498Z,8.15
2023-05-10T08:15:26.725Z,12.25
2023-05-10T08:17:53.960Z,13.55
2023-05-10T08:20:21.819Z,11.27
2023-05-10T08:22:51.723Z,11.55
2023-05-10T08:25:19.495Z,9.32
2023-05-10T08:27:46.970Z,10.10
2023-05-10T08:30:14.331Z,11.50
2023-05-10T08:32:41.712Z,8.80
2023-05-10T08:35:09.203Z,11.90
2023-05-10T08:37:36.488Z,10.82
2023-05-10T08:40:04.339Z,11.35
2023-05-10T08:42:37.405Z,9.43
2023-05-10T08:45:05.689Z,10.40
2023-05-10T08:47:33.206Z,9.48
2023-05-10T08:50:01.402Z,7.13
2023-05-10T08:52:31.173Z,12.00
2023-05-10T08:54:58.426Z,12.73
2023-05-10T08:57:26.020Z,10.77
2023-05-10T08:59:53.498Z,9.18
2023-05-10T09:02:22.210Z,8.80
2023-05-10T09:04:50.294Z,11.98
2023-05-10T09:07:18.171Z,14.85
2023-05-10T09:09:46.950Z,9.68
2023-05-10T09:12:16.647Z,12.35
2023-05-10T09:14:45.563Z,13.40
2023-05-10T09:17:13.582Z,10.90
2023-05-10T09:19:40.760Z,10.20
2023-05-10T09:22:08.146Z,7.53
2023-05-10T09:24:35.667Z,6.97
2023-05-10T09:27:02.992Z,18.40
2023-05-10T09:29:41.547Z,16.02
2023-05-10T09:32:08.883Z,17.45
2023-05-10T09:34:36.637Z,11.35
2023-05-10T09:37:07.283Z,7.55
2023-05-10T09:39:38.745Z,7.10
2023-05-10T09:42:08.846Z,12.85
2023-05-10T09:44:36.720Z,6.55
2023-05-10T09:47:04.476Z,8.80
2023-05-10T09:49:32.499Z,10.95
2023-05-10T09:52:02.987Z,8.05
2023-05-10T09:54:30.655Z,13.18
2023-05-10T09:56:58.184Z,8.13
2023-05-10T09:59:29.363Z,9.45
2023-05-10T10:02:01.530Z,11.15
2023-05-10T10:04:29.206Z,11.60
2023-05-10T10:07:03.859Z,10.20
2023-05-10T10:09:32.470Z,9.55
2023-05-10T10:12:03.788Z,8.23
2023-05-10T10:14:31.164Z,8.43
2023-05-10T10:17:08.384Z,9.68
2023-05-10T10:19:37.124Z,8.73
2023-05-10T10:22:05.143Z,8.85
2023-05-10T10:24:32.845Z,8.32
2023-05-10T10:27:25.220Z,8.48
2023-05-10T10:30:23.609Z,6.28
2023-05-10T10:33:07.918Z,7.75
2023-05-10T10:35:46.745Z,8.82
2023-05-10T10:38:14.803Z,5.00
2023-05-10T10:40:42.099Z,10.95
2023-05-10T10:43:28.571Z,7.93
2023-05-10T10:46:16.534Z,7.13
2023-05-10T10:49:10.627Z,7.38
2023-05-10T10:52:01.793Z,14.23
2023-05-10T10:54:33.931Z,8.95
2023-05-10T10:57:14.719Z,6.15
2023-05-10T10:59:45.551Z,15.43
2023-05-10T11:02:43.899Z,8.60
2023-05-10T11:05:30.024Z,14.13
2023-05-10T11:07:59.009Z,9.82
2023-05-10T11:10:27.453Z,9.18
2023-05-10T11:13:08.023Z,12.50
2023-05-10T11:15:41.474Z,4.95
2023-05-10T11:18:28.757Z,9.30
2023-05-10T11:21:03.764Z,7.75
2023-05-10T11:23:33.011Z,7.35
2023-05-10T11:26:05.960Z,5.80
2023-05-10T11:28:33.595Z,5.90
2023-05-10T11:31:00.942Z,4.53
2023-05-10T11:33:28.174Z,5.93
2023-05-10T11:35:55.459Z,7.07
2023-05-10T11:38:22.685Z,4.57
2023-05-10T11:40:54.404Z,4.75
2023-05-10T11:43:25.048Z,7.32
2023-05-10T11:45:52.294Z,7.30
2023-05-10T11:48:23.311Z,6.40
2023-05-10T11:50:51.320Z,4.07
2023-05-10T11:53:21.509Z,3.70
2023-05-10T11:55:49.509Z,2.95
2023-05-10T11:58:16.739Z,6.32
2023-05-10T12:00:44.061Z,5.22
2023-05-10T12:03:11.740Z,5.38
2023-05-10T12:05:40.583Z,5.28
2023-05-10T12:08:13.701Z,6.32
2023-05-10T12:10:40.973Z,4.38
2023-05-10T12:13:14.143Z,9.88
2023-05-10T12:15:41.435Z,4.78
2023-05-10T12:18:11.663Z,4.97
2023-05-10T12:20:39.901Z,12.65
2023-05-10T12:23:09.357Z,8.15
2023-05-10T12:25:39.176Z,8.90
2023-05-10T12:28:08.566Z,5.97
2023-05-10T12:30:37.180Z,3.75
2023-05-10T12:33:16.191Z,3.40
2023-05-10T12:35:54.891Z,6.60
2023-05-10T12:38:35.308Z,4.95
2023-05-10T12:41:08.220Z,3.78
2023-05-10T12:43:36.360Z,10.07
2023-05-10T12:46:11.377Z,4.03
2023-05-10T12:48:39.799Z,6.68
2023-05-10T12:51:10.369Z,4.25
2023-05-10T12:53:37.814Z,4.53
2023-05-10T12:56:05.344Z,5.38
2023-05-10T12:58:35.997Z,6.32
2023-05-10T13:01:04.057Z,4.28
2023-05-10T13:03:31.563Z,4.63
2023-05-10T13:05:58.838Z,6.60
2023-05-10T13:08:26.280Z,6.05
2023-05-10T13:10:53.913Z,9.43
2023-05-10T13:13:21.161Z,8.93
2023-05-10T13:15:48.309Z,5.05
2023-05-10T13:18:15.595Z,9.52
2023-05-10T13:20:44.185Z,7.05
2023-05-10T13:23:11.688Z,7.93
2023-05-10T13:25:39.245Z,7.47
2023-05-10T13:28:06.570Z,9.25
2023-05-10T13:30:33.715Z,3.88
2023-05-10T13:33:00.967Z,3.60
2023-05-10T13:35:28.128Z,4.25
2023-05-10T13:37:57.818Z,5.22
2023-05-10T13:40:25.033Z,4.47
2023-05-10T13:42:52.148Z,6.65
2023-05-10T13:45:19.577Z,3.75
2023-05-10T13:47:46.988Z,3.83
2023-05-10T13:50:14.231Z,6.20
2023-05-10T13:52:41.420Z,6.10
2023-05-10T13:55:09.068Z,4.22
2023-05-10T13:57:37.049Z,3.95
2023-05-10T14:00:04.599Z,9.52
2023-05-10T14:02:35.520Z,4.50
2023-05-10T14:05:02.951Z,3.25
2023-05-10T14:07:30.188Z,5.32
2023-05-10T14:09:57.389Z,5.60
2023-05-10T14:12:24.646Z,3.75
2023-05-10T14:14:51.827Z,6.55
2023-05-10T14:17:19.050Z,3.95
2023-05-10T14:19:46.226Z,3.15
2023-05-10T14:22:13.324Z,3.22
2023-05-10T14:24:40.527Z,3.47
2023-05-10T14:27:08.066Z,5.28
2023-05-10T14:29:35.347Z,4.97
2023-05-10T14:32:03.825Z,3.00
2023-05-10T14:34:31.101Z,5.53
2023-05-10T14:36:58.379Z,2.15
2023-05-10T14:39:25.893Z,4.95
2023-05-10T14:41:53.620Z,4.05
2023-05-10T14:44:21.126Z,2.08
2023-05-10T14:46:49.415Z,1.83
2023-05-10T14:49:16.770Z,2.28
2023-05-10T14:51:43.989Z,5.00
2023-05-10T14:54:11.189Z,3.88
2023-05-10T14:56:38.891Z,2.75
2023-05-10T14:59:06.174Z,2.63
2023-05-10T15:01:34.073Z,10.50
2023-05-10T15:04:02.103Z,5.00
2023-05-10T15:06:34.703Z,3.70
2023-05-10T15:09:02.811Z,3.60
2023-05-10T15:11:30.464Z,4.57
2023-05-10T15:13:57.746Z,10.05
2023-05-10T15:16:25.262Z,3.92
2023-05-10T15:18:52.719Z,1.92
2023-05-10T15:21:19.957Z,0.55
2023-05-10T15:23:47.175Z,2.45
2023-05-10T15:26:14.431Z,2.95
2023-05-10T15:28:41.600Z,4.63
2023-05-10T15:31:08.877Z,1.70
2023-05-10T15:33:38.113Z,2.05
2023-05-10T15:36:05.617Z,5.93
2023-05-10T15:38:32.861Z,3.75
2023-05-10T15:41:00.039Z,3.25
2023-05-10T15:43:27.289Z,3.55
2023-05-10T15:45:54.587Z,6.82
2023-05-10T15:48:21.820Z,5.30
2023-05-10T15:50:49.258Z,0.93
2023-05-10T15:53:16.811Z,4.57
2023-05-10T15:55:44.327Z,0.95
2023-05-10T15:58:11.704Z,4.90
2023-05-10T16:00:39.216Z,4.20
2023-05-10T16:03:06.975Z,2.00
2023-05-10T16:05:34.984Z,1.85
2023-05-10T16:08:02.568Z,2.20
2023-05-10T16:10:33.917Z,3.50
2023-05-10T16:13:05.069Z,2.53
2023-05-10T16:15:53.963Z,3.10
2023-05-10T16:18:26.966Z,3.88
2023-05-10T16:20:54.653Z,4.82
2023-05-10T16:23:22.163Z,2.33
2023-05-10T16:25:49.357Z,5.90
2023-05-10T16:28:16.608Z,2.15
2023-05-10T16:30:43.837Z,4.60
2023-05-10T16:33:11.142Z,1.83
2023-05-10T16:35:38.896Z,3.78
2023-05-10T16:38:06.104Z,4.28
2023-05-10T16:40:33.645Z,2.92
2023-05-10T16:43:00.832Z,3.35
2023-05-10T16:45:28.092Z,3.28
2023-05-10T16:47:55.388Z,2.08
2023-05-10T16:50:22.718Z,4.15
2023-05-10T16:52:50.014Z,4.38
2023-05-10T16:55:17.527Z,1.80
2023-05-10T16:57:45.000Z,2.83
2023-05-10T17:00:12.955Z,2.58
2023-05-10T17:02:40.388Z,3.45
2023-05-10T17:05:08.003Z,1.85
2023-05-10T17:07:35.212Z,5.82
2023-05-10T17:10:02.402Z,5.65
2023-05-10T17:12:31.163Z,6.43
2023-05-10T17:14:58.823Z,3.50
2023-05-10T17:17:25.981Z,2.45
2023-05-10T17:19:53.324Z,4.40
2023-05-10T17:22:20.684Z,2.97
2023-05-10T17:24:47.939Z,4.20
2023-05-10T17:27:15.247Z,4.05
2023-05-10T17:29:42.668Z,4.28
2023-05-10T17:32:09.945Z,4.03
2023-05-10T17:34:38.605Z,0.70
2023-05-10T17:37:05.842Z,1.15
2023-05-10T17:39:34.210Z,3.35
2023-05-10T17:42:01.546Z,2.92
2023-05-10T17:44:28.900Z,2.83
2023-05-10T17:46:56.081Z,4.28
2023-05-10T17:49:23.290Z,1.80
2023-05-10T17:51:50.761Z,2.67
2023-05-10T17:54:18.054Z,2.55
2023-05-10T17:56:45.341Z,5.10
2023-05-10T17:59:12.620Z,1.60
2023-05-10T18:01:40.013Z,3.92
2023-05-10T18:04:08.339Z,1.48
2023-05-10T18:06:37.353Z,2.28
2023-05-10T18:09:05.209Z,1.95
2023-05-10T18:11:32.517Z,3.60
2023-05-10T18:13:59.826Z,3.78
2023-05-10T18:16:27.141Z,2.92
2023-05-10T18:18:54.485Z,2.38
2023-05-10T18:21:21.799Z,0.98
2023-05-10T18:23:48.956Z,1.85
2023-05-10T18:26:18.193Z,3.15
2023-05-10T18:28:45.649Z,4.60
2023-05-10T18:31:12.920Z,2.15
2023-05-10T18:33:40.218Z,3.40
2023-05-10T18:36:07.617Z,2.55
2023-05-10T18:38:35.196Z,2.40
2023-05-10T18:41:03.065Z,3.83
2023-05-10T18:43:30.226Z,4.90
2023-05-10T18:45:57.503Z,1.63
2023-05-10T18:48:24.750Z,6.63
2023-05-10T18:50:51.961Z,1.58
2023-05-10T18:53:19.201Z,4.32
2023-05-10T18:55:46.763Z,3.85
2023-05-10T18:58:14.065Z,6.07
2023-05-10T19:00:41.281Z,3.05
2023-05-10T19:03:08.579Z,3.25
2023-05-10T19:05:36.149Z,2.67
2023-05-10T19:08:03.325Z,3.58
2023-05-10T19:10:30.485Z,2.63
2023-05-10T19:12:57.638Z,4.43
2023-05-10T19:15:24.922Z,2.47
2023-05-10T19:17:52.362Z,3.22
2023-05-10T19:20:19.978Z,2.90
2023-05-10T19:23:02.110Z,2.83
2023-05-10T19:25:35.436Z,2.38
2023-05-10T19:28:02.874Z,3.65
2023-05-10T19:30:31.724Z,4.72
2023-05-10T19:32:59.108Z,5.75
2023-05-10T19:35:26.418Z,5.32
2023-05-10T19:37:53.696Z,1.48
2023-05-10T19:40:20.997Z,5.03
2023-05-10T19:42:48.275Z,6.18
2023-05-10T19:45:16.040Z,2.15
2023-05-10T19:47:43.769Z,2.42
2023-05-10T19:50:12.542Z,3.75
2023-05-10T19:52:39.922Z,4.68
2023-05-10T19:55:08.875Z,3.75
2023-05-10T19:57:36.217Z,2.83
2023-05-10T20:00:05.100Z,3.10
2023-05-10T20:02:38.465Z,3.80
2023-05-10T20:05:06.054Z,4.10
2023-05-10T20:07:33.319Z,3.20
2023-05-10T20:10:00.688Z,3.92
2023-05-10T20:12:28.346Z,4.45
2023-05-10T20:14:55.590Z,4.90
2023-05-10T20:17:22.811Z,3.30
2023-05-10T20:19:50.179Z,4.45
2023-05-10T20:22:17.443Z,5.13
2023-05-10T20:24:44.856Z,2.88
2023-05-10T20:27:12.141Z,6.75
2023-05-10T20:29:39.339Z,2.25
2023-05-10T20:32:06.660Z,3.53
2023-05-10T20:34:35.231Z,4.05
2023-05-10T20:37:02.444Z,1.88
2023-05-10T20:39:30.158Z,3.17
2023-05-10T20:41:57.378Z,2.28
2023-05-10T20:44:24.640Z,2.67
2023-05-10T20:46:51.916Z,1.92
2023-05-10T20:49:19.883Z,2.70
2023-05-10T20:51:47.139Z,6.18
2023-05-10T20:54:14.568Z,4.35
2023-05-10T20:56:41.873Z,2.63
2023-05-10T20:59:09.115Z,1.05
2023-05-10T21:01:36.330Z,3.20
2023-05-10T21:04:04.089Z,4.85
2023-05-10T21:06:32.092Z,3.08
2023-05-10T21:08:59.360Z,2.22
2023-05-10T21:11:26.818Z,3.95
2023-05-10T21:13:54.077Z,2.85
2023-05-10T21:16:21.357Z,3.90
2023-05-10T21:18:48.610Z,4.75
2023-05-10T21:21:15.913Z,4.53
2023-05-10T21:23:43.079Z,2.22
2023-05-10T21:26:10.343Z,4.22
2023-05-10T21:28:39.037Z,6.55
2023-05-10T21:31:07.571Z,1.75
2023-05-10T21:33:34.918Z,4.50
2023-05-10T21:36:02.226Z,3.83
2023-05-10T21:38:29.571Z,1.15
2023-05-10T21:40:56.884Z,2.55
2023-05-10T21:43:24.075Z,3.13
2023-05-10T21:45:51.285Z,2.50
2023-05-10T21:48:18.481Z,1.17
2023-05-10T21:50:47.602Z,4.32
2023-05-10T21:53:14.814Z,4.10
2023-05-10T21:55:42.134Z,2.28
2023-05-10T21:58:09.409Z,1.25
2023-05-10T22:00:36.608Z,1.67
2023-05-10T22:03:03.926Z,4.47
2023-05-10T22:05:31.205Z,1.08
2023-05-10T22:07:58.501Z,5.15
2023-05-10T22:10:25.807Z,0.73
2023-05-10T22:12:53.098Z,1.80
2023-05-10T22:15:20.357Z,1.30
2023-05-10T22:17:47.679Z,6.22
2023-05-10T22:20:15.115Z,2.42
2023-05-10T22:22:42.500Z,2.33
2023-05-10T22:25:09.854Z,2.63
2023-05-10T22:27:37.070Z,1.98
2023-05-10T22:30:04.867Z,1.58
2023-05-10T22:32:33.840Z,3.42
2023-05-10T22:35:01.080Z,2.28
2023-05-10T22:37:28.283Z,2.90
2023-05-10T22:39:55.711Z,2.92
2023-05-10T22:42:22.926Z,2.97
2023-05-10T22:44:50.405Z,3.47
2023-05-10T22:47:17.872Z,5.45
2023-05-10T22:49:45.147Z,5.03
2023-05-10T22:52:12.648Z,2.53
2023-05-10T22:54:39.801Z,3.58
2023-05-10T22:57:07.222Z,1.40
2023-05-10T22:59:34.454Z,3.95
2023-05-10T23:02:01.715Z,3.08
2023-05-10T23:04:29.142Z,1.05
2023-05-10T23:06:56.500Z,3.42
2023-05-10T23:09:23.740Z,3.35
2023-05-10T23:11:50.991Z,2.90
2023-05-10T23:14:18.206Z,0.95
2023-05-10T23:16:45.843Z,4.50
2023-05-10T23:19:13.126Z,3.78
2023-05-10T23:21:40.982Z,2.70
2023-05-10T23:24:08.762Z,2.30
2023-05-10T23:26:36.077Z,2.47
2023-05-10T23:29:03.575Z,2.33
2023-05-10T23:31:30.949Z,2.58
2023-05-10T23:33:58.229Z,1.85
2023-05-10T23:36:25.447Z,3.25
2023-05-10T23:38:52.709Z,0.55
2023-05-10T23:41:20.109Z,4.55
2023-05-10T23:43:47.409Z,4.38
2023-05-10T23:46:14.761Z,5.20
2023-05-10T23:48:42.172Z,1.75
2023-05-10T23:51:09.411Z,2.70
2023-05-10T23:53:37.671Z,0.55
2023-05-10T23:56:05.477Z,1.17
2023-05-10T23:58:32.667Z,2.80
